Time;durP1;ratioP1;P1;durP2;ratioP2;P2;SDS_P1;SDS_P2;PMS_P1;PMS_P2;Temp;Humidity;BMP_temperature;BMP_pressure;BME280_temperature;BME280_humidity;BME280_pressure;Samples;Min_cycle;Max_cycle;Signal;HPM_P1;HPM_P2
2021/05/27 00:00:27;;;;;;;4.85;3.78;;;;;;;9.08;100.00;100701.03;6199914;28;20097;-79
2021/05/27 00:03:27;;;;;;;4.47;4.07;;;;;;;9.12;100.00;100696.47;6199555;28;20050;-79
2021/05/27 00:06:28;;;;;;;5.93;3.78;;;;;;;9.16;100.00;100695.41;6210062;28;20085;-78
2021/05/27 00:09:30;;;;;;;4.28;3.80;;;;;;;9.13;100.00;100699.03;6214954;28;20429;-79
2021/05/27 00:12:31;;;;;;;4.10;3.65;;;;;;;9.10;100.00;100699.16;6219630;28;20046;-78
2021/05/27 00:15:32;;;;;;;7.38;3.67;;;;;;;9.04;100.00;100693.38;6220311;28;20046;-78
2021/05/27 00:18:33;;;;;;;6.18;3.88;;;;;;;9.01;100.00;100697.00;6224316;28;20160;-76
2021/05/27 00:21:34;;;;;;;5.47;4.07;;;;;;;8.99;100.00;100704.06;6223603;28;20583;-77
2021/05/27 00:24:36;;;;;;;4.10;3.42;;;;;;;9.08;100.00;100702.78;6224554;28;20217;-78
2021/05/27 00:27:37;;;;;;;6.57;3.88;;;;;;;9.01;100.00;100704.84;6224263;28;20050;-78
2021/05/27 00:30:38;;;;;;;7.65;4.13;;;;;;;8.94;100.00;100707.81;6219375;28;20096;-79
2021/05/27 00:33:39;;;;;;;6.28;3.00;;;;;;;8.97;100.00;100703.28;6219446;28;20125;-79
2021/05/27 00:36:40;;;;;;;3.47;2.63;;;;;;;8.87;100.00;100702.03;6207702;28;20054;-79
2021/05/27 00:39:42;;;;;;;5.55;2.92;;;;;;;8.84;100.00;100717.91;6199916;28;20518;-79
2021/05/27 00:42:43;;;;;;;4.20;2.95;;;;;;;8.97;100.00;100718.19;6199484;28;20050;-79
2021/05/27 00:45:44;;;;;;;5.85;3.15;;;;;;;8.91;100.00;100713.22;6199333;28;20058;-80
2021/05/27 00:48:57;;;;;;;4.30;3.13;;;;;;;8.89;100.00;100715.91;6206850;28;20485;-78
2021/05/27 00:51:58;;;;;;;4.80;3.30;;;;;;;8.87;100.00;100720.38;6223023;28;20432;-80
2021/05/27 00:55:02;;;;;;;4.85;3.58;;;;;;;8.99;100.00;100722.41;6219459;28;20125;-78
2021/05/27 00:58:03;;;;;;;4.93;3.38;;;;;;;8.95;100.00;100720.00;6201510;28;20053;-77
2021/05/27 01:01:04;;;;;;;4.22;3.78;;;;;;;8.94;100.00;100713.91;6198468;28;20490;-80
2021/05/27 01:04:06;;;;;;;7.80;3.92;;;;;;;8.94;100.00;100726.16;6198325;28;20053;-78
2021/05/27 01:07:07;;;;;;;7.72;4.10;;;;;;;8.84;100.00;100725.75;6199069;28;20046;-80
2021/05/27 01:10:12;;;;;;;6.80;3.65;;;;;;;8.87;100.00;100721.22;6198577;28;20072;-78
2021/05/27 01:13:13;;;;;;;6.20;3.75;;;;;;;8.81;100.00;100718.03;6198878;28;20050;-78
2021/05/27 01:16:16;;;;;;;6.05;3.85;;;;;;;8.77;100.00;100730.44;6198677;28;20061;-81
2021/05/27 01:19:17;;;;;;;5.00;3.13;;;;;;;8.81;100.00;100732.00;6198674;28;20511;-79
2021/05/27 01:22:19;;;;;;;6.95;2.85;;;;;;;8.76;100.00;100740.97;6198704;28;20143;-81
2021/05/27 01:25:20;;;;;;;6.38;2.92;;;;;;;8.82;100.00;100738.09;6198670;28;20050;-78
2021/05/27 01:28:22;;;;;;;4.53;2.97;;;;;;;8.72;100.00;100737.66;6198182;28;20069;-80
2021/05/27 01:31:23;;;;;;;5.57;2.42;;;;;;;9.00;100.00;100739.84;6198027;28;20050;-77
2021/05/27 01:34:24;;;;;;;6.68;2.58;;;;;;;8.85;100.00;100738.78;6200505;28;20058;-77
2021/05/27 01:37:26;;;;;;;7.35;3.55;;;;;;;8.74;100.00;100737.59;6202861;28;20100;-80
2021/05/27 01:40:27;;;;;;;7.22;2.60;;;;;;;8.95;100.00;100738.34;6202901;28;20049;-78
2021/05/27 01:43:28;;;;;;;4.43;2.95;;;;;;;8.80;100.00;100732.91;6202987;28;20046;-79
2021/05/27 01:46:29;;;;;;;7.88;3.70;;;;;;;8.87;100.00;100736.09;6202853;28;20051;-79
2021/05/27 01:49:30;;;;;;;5.32;3.45;;;;;;;8.75;100.00;100740.13;6202918;28;20635;-79
2021/05/27 01:52:31;;;;;;;7.97;3.95;;;;;;;8.74;100.00;100746.28;6202936;28;20051;-79
2021/05/27 01:55:33;;;;;;;9.00;4.20;;;;;;;8.75;100.00;100748.00;6203088;28;20046;-78
2021/05/27 01:58:34;;;;;;;8.35;3.47;;;;;;;8.83;100.00;100751.13;6202980;28;20612;-77
2021/05/27 02:01:35;;;;;;;8.68;3.63;;;;;;;8.80;100.00;100748.63;6201911;28;20125;-80
2021/05/27 02:04:36;;;;;;;4.65;3.40;;;;;;;8.87;100.00;100744.81;6202803;28;20058;-78
2021/05/27 02:07:38;;;;;;;4.93;3.25;;;;;;;8.96;100.00;100740.91;6202317;28;20131;-77
2021/05/27 02:10:39;;;;;;;10.40;3.78;;;;;;;8.96;100.00;100746.16;6202284;28;20043;-78
2021/05/27 02:13:40;;;;;;;9.02;4.32;;;;;;;9.09;100.00;100742.03;6202056;28;20057;-77
2021/05/27 02:16:42;;;;;;;10.95;4.78;;;;;;;8.87;100.00;100743.97;6202056;28;20058;-77
2021/05/27 02:19:43;;;;;;;5.63;3.40;;;;;;;8.95;100.00;100748.84;6201741;28;20054;-78
2021/05/27 02:22:45;;;;;;;6.80;2.95;;;;;;;8.84;100.00;100739.69;6202149;28;20138;-78
2021/05/27 02:25:46;;;;;;;8.88;3.58;;;;;;;8.79;100.00;100746.94;6201941;28;20444;-80
2021/05/27 02:28:47;;;;;;;8.77;3.92;;;;;;;8.74;100.00;100742.84;6202582;28;20042;-79
2021/05/27 02:31:48;;;;;;;8.55;3.75;;;;;;;8.73;100.00;100744.59;6203194;28;20050;-80
2021/05/27 02:34:49;;;;;;;8.27;4.00;;;;;;;8.78;100.00;100750.47;6201937;28;20054;-80
2021/05/27 02:37:51;;;;;;;8.80;3.20;;;;;;;8.78;100.00;100755.72;6202289;28;20125;-80
2021/05/27 02:40:52;;;;;;;10.48;3.35;;;;;;;8.87;100.00;100755.28;6201728;28;20097;-80
2021/05/27 02:43:53;;;;;;;10.93;4.43;;;;;;;8.87;100.00;100750.06;6201271;28;20046;-80
2021/05/27 02:46:54;;;;;;;8.40;3.20;;;;;;;8.83;100.00;100753.75;6201630;28;20054;-79
2021/05/27 02:49:54;;;;;;;9.32;3.50;;;;;;;8.88;100.00;100756.16;6201496;28;20497;-79
2021/05/27 02:52:56;;;;;;;9.02;3.47;;;;;;;8.83;100.00;100752.88;6201468;28;20047;-80
2021/05/27 02:55:57;;;;;;;6.90;3.95;;;;;;;8.80;100.00;100753.03;6202196;28;20050;-79
2021/05/27 02:58:58;;;;;;;10.73;4.45;;;;;;;8.78;100.00;100750.47;6201871;28;20057;-80
2021/05/27 03:01:59;;;;;;;10.02;4.43;;;;;;;8.78;100.00;100752.25;6201305;28;20138;-80
2021/05/27 03:05:00;;;;;;;8.18;5.00;;;;;;;8.76;100.00;100744.44;6201849;28;20054;-80
2021/05/27 03:08:02;;;;;;;11.88;4.20;;;;;;;8.85;100.00;100751.88;6201204;28;20129;-79
2021/05/27 03:11:03;;;;;;;9.02;4.20;;;;;;;8.89;100.00;100756.06;6200859;28;20544;-77
2021/05/27 03:14:04;;;;;;;8.00;3.95;;;;;;;8.83;100.00;100756.34;6215511;28;20292;-80
2021/05/27 03:17:05;;;;;;;6.47;4.20;;;;;;;8.79;100.00;100757.41;6225336;28;20056;-78
2021/05/27 03:20:07;;;;;;;12.18;4.63;;;;;;;8.82;100.00;100759.06;6224761;28;20046;-78
2021/05/27 03:23:09;;;;;;;12.32;5.00;;;;;;;8.81;100.00;100763.44;6225101;28;20108;-80
2021/05/27 03:26:10;;;;;;;5.95;4.10;;;;;;;9.09;100.00;100762.16;6224678;28;20053;-77
2021/05/27 03:29:13;;;;;;;7.25;4.50;;;;;;;8.88;100.00;100769.25;6224426;28;20061;-77
2021/05/27 03:32:14;;;;;;;9.13;4.53;;;;;;;8.91;100.00;100768.28;6224290;28;20417;-77
2021/05/27 03:35:15;;;;;;;8.88;4.57;;;;;;;8.89;100.00;100770.94;6224716;28;20057;-78
2021/05/27 03:38:17;;;;;;;10.45;4.43;;;;;;;8.96;100.00;100775.00;6224047;28;20088;-78
2021/05/27 03:41:18;;;;;;;10.73;4.30;;;;;;;9.08;100.00;100773.56;6224184;28;20421;-78
2021/05/27 03:44:19;;;;;;;11.18;3.60;;;;;;;8.96;100.00;100766.28;6224122;28;20128;-79
2021/05/27 03:47:20;;;;;;;10.55;4.57;;;;;;;9.01;100.00;100774.78;6224360;28;20049;-75
2021/05/27 03:50:23;;;;;;;8.57;3.90;;;;;;;8.95;100.00;100768.06;6224323;28;20132;-78
2021/05/27 03:53:25;;;;;;;11.48;4.43;;;;;;;8.92;100.00;100767.34;6224530;28;20061;-78
2021/05/27 03:56:26;;;;;;;10.93;4.45;;;;;;;8.89;100.00;100763.94;6223953;28;20133;-79
2021/05/27 04:02:48;;;;;;;9.98;5.18;;;;;;;8.89;100.00;100770.94;6224308;28;20560;-79
2021/05/27 04:09:09;;;;;;;12.75;5.03;;;;;;;8.94;100.00;100771.56;6223849;28;20050;-76
2021/05/27 04:15:32;;;;;;;7.05;4.40;;;;;;;8.94;100.00;100771.56;6224193;28;20053;-77
2021/05/27 04:18:33;;;;;;;15.52;5.57;;;;;;;8.97;100.00;100771.44;6223361;28;20041;-77
2021/05/27 04:21:34;;;;;;;16.20;7.93;;;;;;;9.07;100.00;100772.72;6223533;28;20524;-77
2021/05/27 04:24:36;;;;;;;10.15;4.80;;;;;;;8.98;100.00;100774.91;6223361;28;20042;-77
2021/05/27 04:27:37;;;;;;;10.10;4.50;;;;;;;9.13;100.00;100769.81;6223398;28;20050;-77
2021/05/27 04:33:58;;;;;;;15.90;5.20;;;;;;;9.04;100.00;100772.03;6223340;28;20050;-75
2021/05/27 04:36:59;;;;;;;10.60;4.78;;;;;;;8.98;100.00;100778.38;6222828;28;20080;-75
2021/05/27 04:40:00;;;;;;;13.85;5.13;;;;;;;8.98;100.00;100774.91;6223037;28;20497;-80
2021/05/27 04:43:01;;;;;;;11.88;4.97;;;;;;;9.11;100.00;100783.91;6223103;28;20050;-77
2021/05/27 04:46:03;;;;;;;17.08;5.50;;;;;;;9.11;100.00;100782.13;6223054;28;20052;-77
2021/05/27 04:49:04;;;;;;;11.70;5.32;;;;;;;9.15;100.00;100790.72;6223034;28;20497;-77
2021/05/27 04:52:06;;;;;;;12.25;4.88;;;;;;;9.39;100.00;100789.53;6222676;28;20053;-76
2021/05/27 04:55:11;;;;;;;14.00;5.30;;;;;;;9.24;100.00;100790.28;6222847;28;20061;-78
2021/05/27 04:58:12;;;;;;;14.25;5.35;;;;;;;9.13;100.00;100795.19;6222964;28;20076;-78
2021/05/27 05:01:13;;;;;;;15.73;5.75;;;;;;;9.09;100.00;100793.63;6222915;28;20096;-78
2021/05/27 05:04:14;;;;;;;17.45;5.78;;;;;;;9.11;100.00;100795.25;6222795;28;20053;-78
2021/05/27 05:07:17;;;;;;;10.93;5.53;;;;;;;9.03;100.00;100791.28;6222776;28;20116;-77
2021/05/27 05:10:21;;;;;;;13.82;6.22;;;;;;;9.05;100.00;100798.16;6222061;28;20073;-78
2021/05/27 05:13:22;;;;;;;10.00;5.55;;;;;;;9.12;100.00;100796.09;6223294;28;20411;-78
2021/05/27 05:16:23;;;;;;;13.90;5.55;;;;;;;9.11;100.00;100799.63;6223209;28;20050;-76
2021/05/27 05:19:24;;;;;;;9.07;6.03;;;;;;;9.10;100.00;100804.03;6223022;28;20077;-78
2021/05/27 05:22:25;;;;;;;9.65;5.35;;;;;;;9.12;100.00;100798.72;6222519;28;20184;-76
2021/05/27 05:25:27;;;;;;;9.23;6.05;;;;;;;8.97;100.00;100802.06;6223238;28;20073;-78
2021/05/27 05:28:28;;;;;;;10.65;5.95;;;;;;;9.00;100.00;100805.38;6222265;28;20141;-77
2021/05/27 05:31:29;;;;;;;10.75;6.82;;;;;;;8.93;100.00;100801.34;6222783;28;20501;-78
2021/05/27 05:34:30;;;;;;;10.55;6.60;;;;;;;8.88;100.00;100808.56;6222779;28;20493;-78
2021/05/27 05:37:31;;;;;;;11.75;7.22;;;;;;;8.88;100.00;100796.31;6222642;28;20078;-77
2021/05/27 05:40:34;;;;;;;13.57;6.03;;;;;;;8.84;100.00;100802.59;6222205;28;20076;-76
2021/05/27 05:43:35;;;;;;;12.75;6.40;;;;;;;8.82;100.00;100800.97;6226909;28;20186;-81
2021/05/27 05:46:35;;;;;;;12.18;6.30;;;;;;;8.93;100.00;100805.72;6228423;28;20136;-81
2021/05/27 05:49:36;;;;;;;10.98;5.63;;;;;;;8.88;100.00;100811.19;6226113;28;20045;-80
2021/05/27 05:52:37;;;;;;;8.75;5.25;;;;;;;8.99;100.00;100815.91;6225506;28;20049;-79
2021/05/27 05:55:40;;;;;;;13.52;5.72;;;;;;;8.96;100.00;100811.69;6225763;28;20049;-81
2021/05/27 05:58:40;;;;;;;10.48;5.63;;;;;;;9.20;100.00;100811.47;6223209;28;20042;-79
2021/05/27 06:01:41;;;;;;;9.02;5.28;;;;;;;9.20;100.00;100825.44;6221765;28;20531;-77
2021/05/27 06:04:42;;;;;;;10.10;5.70;;;;;;;9.19;100.00;100825.50;6222373;28;20053;-78
2021/05/27 06:07:43;;;;;;;7.40;5.28;;;;;;;9.23;100.00;100830.53;6222460;28;20054;-78
2021/05/27 06:10:45;;;;;;;14.02;4.97;;;;;;;9.25;100.00;100838.31;6222026;28;20050;-77
2021/05/27 06:13:46;;;;;;;7.78;4.32;;;;;;;9.24;100.00;100836.63;6221337;28;20136;-78
2021/05/27 06:16:47;;;;;;;8.57;4.70;;;;;;;9.31;100.00;100843.28;6220653;28;20077;-76
2021/05/27 06:19:48;;;;;;;9.45;5.22;;;;;;;9.22;100.00;100841.06;6223251;28;20046;-78
2021/05/27 06:22:50;;;;;;;8.05;4.93;;;;;;;9.30;100.00;100847.69;6226019;28;20069;-78
2021/05/27 06:25:52;;;;;;;10.63;5.20;;;;;;;9.35;100.00;100856.16;6226031;28;20056;-79
2021/05/27 06:28:53;;;;;;;10.80;4.75;;;;;;;9.38;100.00;100863.91;6225851;28;20136;-78
2021/05/27 06:31:54;;;;;;;8.90;4.90;;;;;;;9.37;100.00;100862.22;6225853;28;20082;-77
2021/05/27 06:34:56;;;;;;;15.88;5.15;;;;;;;9.43;100.00;100865.47;6226020;28;20107;-79
2021/05/27 06:37:57;;;;;;;11.85;5.38;;;;;;;9.46;100.00;100871.44;6222607;28;20045;-78
2021/05/27 06:40:58;;;;;;;9.15;4.20;;;;;;;9.46;100.00;100878.47;6215719;28;20039;-78
2021/05/27 06:43:59;;;;;;;9.25;4.05;;;;;;;9.45;100.00;100877.59;6209578;28;20057;-78
2021/05/27 06:47:00;;;;;;;8.32;3.92;;;;;;;9.53;100.00;100879.84;6201546;28;20058;-78
2021/05/27 06:50:01;;;;;;;7.85;3.30;;;;;;;9.62;100.00;100880.25;6200962;28;20050;-78
2021/05/27 06:53:04;;;;;;;10.52;3.67;;;;;;;9.64;100.00;100880.22;6201997;28;20517;-78
2021/05/27 06:56:06;;;;;;;10.00;3.88;;;;;;;9.72;100.00;100883.34;6201798;28;20133;-77
2021/05/27 06:59:07;;;;;;;9.30;3.78;;;;;;;9.63;100.00;100881.16;6202103;28;20049;-78
2021/05/27 07:02:08;;;;;;;9.25;3.63;;;;;;;9.71;100.00;100883.38;6200967;28;20501;-80
2021/05/27 07:05:09;;;;;;;8.38;3.28;;;;;;;9.80;100.00;100885.56;6201411;28;20050;-78
2021/05/27 07:08:11;;;;;;;5.70;2.75;;;;;;;9.74;100.00;100884.09;6200751;28;20046;-79
2021/05/27 07:11:13;;;;;;;14.63;3.63;;;;;;;9.65;100.00;100893.25;6200942;28;20042;-79
2021/05/27 07:14:13;;;;;;;5.90;2.55;;;;;;;9.69;100.00;100886.09;6201492;28;20486;-80
2021/05/27 07:17:15;;;;;;;5.35;2.55;;;;;;;9.87;100.00;100884.38;6202136;28;20150;-78
2021/05/27 07:20:17;;;;;;;5.18;2.35;;;;;;;9.79;100.00;100886.50;6200712;28;20050;-78
2021/05/27 07:23:18;;;;;;;4.10;1.83;;;;;;;9.87;100.00;100897.50;6201310;28;20050;-78
2021/05/27 07:26:20;;;;;;;6.30;1.80;;;;;;;9.93;100.00;100889.31;6200685;28;20133;-77
2021/05/27 07:29:21;;;;;;;3.88;1.98;;;;;;;9.73;100.00;100892.06;6201233;28;20046;-78
2021/05/27 07:32:22;;;;;;;4.00;1.92;;;;;;;9.86;100.00;100895.78;6199665;28;20537;-77
2021/05/27 07:35:25;;;;;;;3.45;1.27;;;;;;;9.85;100.00;100894.06;6200299;28;20051;-77
2021/05/27 07:38:26;;;;;;;3.50;1.45;;;;;;;9.72;100.00;100899.06;6223898;28;20069;-78
2021/05/27 07:41:28;;;;;;;2.75;1.55;;;;;;;9.76;100.00;100895.34;6224030;28;20046;-77
2021/05/27 07:44:28;;;;;;;3.03;1.52;;;;;;;9.67;100.00;100895.78;6224059;28;20045;-77
2021/05/27 07:47:31;;;;;;;4.38;1.63;;;;;;;9.66;100.00;100905.44;6224346;28;20079;-77
2021/05/27 07:50:32;;;;;;;3.58;1.48;;;;;;;9.76;100.00;100900.59;6223904;28;20507;-77
2021/05/27 07:53:34;;;;;;;3.22;1.50;;;;;;;9.67;100.00;100906.28;6224057;28;20053;-77
2021/05/27 07:56:35;;;;;;;1.85;1.48;;;;;;;9.62;100.00;100897.78;6223903;28;20046;-78
2021/05/27 07:59:36;;;;;;;8.55;1.70;;;;;;;9.67;100.00;100893.16;6224030;28;20053;-77
2021/05/27 08:02:37;;;;;;;1.90;1.42;;;;;;;9.60;100.00;100900.50;6224289;28;20135;-77
2021/05/27 08:05:38;;;;;;;2.80;1.67;;;;;;;9.67;100.00;100906.28;6224313;28;20065;-78
2021/05/27 08:08:39;;;;;;;4.07;1.63;;;;;;;9.64;100.00;100917.78;6224648;28;20054;-77
2021/05/27 08:11:42;;;;;;;2.65;1.65;;;;;;;9.77;100.00;100925.94;6223566;28;20125;-77
2021/05/27 08:14:44;;;;;;;3.70;2.28;;;;;;;9.87;100.00;100929.84;6223465;28;20050;-76
2021/05/27 08:17:45;;;;;;;4.07;1.90;;;;;;;9.84;100.00;100929.13;6224085;28;20083;-77
2021/05/27 08:20:46;;;;;;;4.03;2.00;;;;;;;10.08;100.00;100930.59;6223886;28;20041;-77
2021/05/27 08:23:48;;;;;;;3.33;2.00;;;;;;;10.39;100.00;100923.84;6223944;28;20046;-77
2021/05/27 08:26:50;;;;;;;3.88;1.67;;;;;;;10.45;100.00;100931.44;6223443;28;20057;-78
2021/05/27 08:29:53;;;;;;;2.70;1.60;;;;;;;10.61;100.00;100926.25;6215979;28;20045;-78
2021/05/27 08:32:54;;;;;;;4.72;2.00;;;;;;;10.70;100.00;100927.56;6213958;28;20053;-78
2021/05/27 08:35:55;;;;;;;5.57;1.42;;;;;;;10.71;100.00;100929.25;6214973;28;20049;-77
2021/05/27 08:38:55;;;;;;;5.40;2.38;;;;;;;10.64;100.00;100923.47;6220706;28;20050;-75
2021/05/27 08:41:57;;;;;;;3.58;1.58;;;;;;;10.82;99.93;100933.06;6222471;28;20500;-77
2021/05/27 08:44:59;;;;;;;6.15;1.50;;;;;;;10.76;99.31;100927.25;6223699;28;20049;-78
2021/05/27 08:48:02;;;;;;;3.55;1.42;;;;;;;10.65;100.00;100933.06;6221962;28;20252;-77
2021/05/27 08:51:03;;;;;;;5.75;1.42;;;;;;;10.55;100.00;100937.09;6221890;28;20053;-78
2021/05/27 08:54:04;;;;;;;6.10;1.75;;;;;;;10.49;100.00;100940.00;6223281;28;20050;-77
2021/05/27 08:57:07;;;;;;;6.28;1.50;;;;;;;10.46;100.00;100941.03;6222847;28;20061;-78
2021/05/27 09:00:09;;;;;;;2.80;1.45;;;;;;;10.68;100.00;100955.72;6222680;28;20053;-76
2021/05/27 09:03:13;;;;;;;3.25;1.40;;;;;;;10.62;100.00;100954.22;6222432;28;20060;-77
2021/05/27 09:06:14;;;;;;;4.15;1.52;;;;;;;10.44;100.00;100965.66;6222431;28;20123;-74
2021/05/27 09:09:15;;;;;;;2.60;1.20;;;;;;;10.56;100.00;100960.66;6222964;28;20481;-78
2021/05/27 09:12:31;;;;;;;4.95;1.52;;;;;;;10.81;99.84;100972.53;6222698;28;20054;-77
2021/05/27 09:15:32;;;;;;;5.10;1.42;;;;;;;11.03;99.95;100961.78;6222484;28;20050;-77
2021/05/27 09:18:35;;;;;;;6.15;1.67;;;;;;;11.04;99.92;100964.34;6222147;28;20093;-77
2021/05/27 09:21:38;;;;;;;5.68;1.40;;;;;;;11.24;98.20;100970.34;6222262;28;20053;-78
2021/05/27 09:24:45;;;;;;;2.25;1.50;;;;;;;11.27;98.94;100976.31;6222348;28;20050;-77
2021/05/27 09:27:47;;;;;;;5.70;1.50;;;;;;;11.20;97.74;100974.91;6222330;28;20086;-76
2021/05/27 09:30:51;;;;;;;6.15;1.45;;;;;;;11.12;96.55;100988.47;6222048;28;20471;-77
2021/05/27 09:34:01;;;;;;;13.38;1.58;;;;;;;11.23;93.31;100993.19;6222299;28;20112;-75
2021/05/27 09:37:02;;;;;;;6.97;1.65;;;;;;;11.09;95.12;100993.06;6221481;28;20469;-77
2021/05/27 09:40:06;;;;;;;9.05;1.83;;;;;;;11.00;97.03;100999.63;6222073;28;20052;-76
2021/05/27 09:43:09;;;;;;;7.85;1.98;;;;;;;11.07;97.15;101005.41;6221985;28;20562;-77
2021/05/27 09:46:10;;;;;;;5.65;1.80;;;;;;;11.11;96.46;101004.34;6201922;28;20050;-77
2021/05/27 09:49:11;;;;;;;4.32;1.60;;;;;;;11.07;96.98;101008.03;6197442;28;20046;-77
2021/05/27 09:52:15;;;;;;;6.30;1.48;;;;;;;11.31;94.12;101019.94;6197665;28;20046;-75
2021/05/27 09:55:17;;;;;;;5.35;1.58;;;;;;;11.51;95.20;101011.00;6200032;28;20058;-77
2021/05/27 09:58:19;;;;;;;8.35;1.83;;;;;;;11.53;92.57;101017.00;6202572;28;20053;-77
2021/05/27 10:01:20;;;;;;;4.53;1.70;;;;;;;11.48;94.34;101018.19;6201905;28;20047;-77
2021/05/27 10:04:21;;;;;;;4.30;1.58;;;;;;;11.55;92.37;101024.84;6201833;28;20076;-76
2021/05/27 10:07:36;;;;;;;3.53;1.52;;;;;;;11.50;91.20;101029.50;6202699;28;20485;-77
2021/05/27 10:10:38;;;;;;;5.78;1.70;;;;;;;11.39;92.44;101030.06;6202131;28;20046;-78
2021/05/27 10:13:41;;;;;;;4.65;1.60;;;;;;;11.14;93.35;101041.84;6201754;28;20520;-76
2021/05/27 10:16:42;;;;;;;7.53;1.90;;;;;;;10.90;95.24;101045.69;6201729;28;20418;-77
2021/05/27 10:19:43;;;;;;;3.42;1.80;;;;;;;10.77;97.08;101040.22;6201493;28;20050;-77
2021/05/27 10:22:44;;;;;;;4.55;2.22;;;;;;;10.78;98.93;101041.91;6215150;28;20085;-77
2021/05/27 10:25:46;;;;;;;5.05;1.80;;;;;;;10.68;99.88;101040.69;6225794;28;20116;-77
2021/05/27 10:28:51;;;;;;;4.07;1.50;;;;;;;10.95;98.48;101042.88;6225667;28;20056;-77
2021/05/27 10:31:54;;;;;;;7.32;1.63;;;;;;;11.07;97.99;101042.22;6226000;28;20046;-76
2021/05/27 10:34:56;;;;;;;5.50;2.05;;;;;;;11.15;97.81;101045.34;6230790;28;20057;-78
2021/05/27 10:37:57;;;;;;;2.65;1.60;;;;;;;11.24;96.66;101055.38;6227666;28;20049;-79
2021/05/27 10:40:58;;;;;;;6.22;1.50;;;;;;;11.43;94.95;101050.88;6228647;28;20057;-78
2021/05/27 10:44:12;;;;;;;6.07;2.78;;;;;;;11.93;92.28;101047.38;6226910;28;20046;-78
2021/05/27 10:47:13;;;;;;;4.43;1.60;;;;;;;12.01;93.14;101052.22;6225669;28;20425;-74
2021/05/27 10:50:14;;;;;;;3.90;1.42;;;;;;;12.09;92.48;101055.28;6226737;28;20046;-77
2021/05/27 10:54:00;;;;;;;6.40;1.67;;;;;;;12.55;88.07;101059.78;6229716;28;20084;-78
2021/05/27 10:57:01;;;;;;;2.55;1.75;;;;;;;12.76;87.72;101049.78;6175928;28;20051;-76
2021/05/27 11:00:03;;;;;;;6.97;1.90;;;;;;;12.65;87.98;101058.34;6225261;28;20084;-78
2021/05/27 11:03:40;;;;;;;3.97;1.55;;;;;;;12.33;88.65;101061.00;6225433;28;20497;-77
2021/05/27 11:06:42;;;;;;;3.28;1.75;;;;;;;12.09;88.90;101068.47;6225213;28;20551;-78
2021/05/27 11:09:46;;;;;;;6.63;1.73;;;;;;;12.08;87.48;101082.59;6225032;28;20046;-76
2021/05/27 11:13:01;;;;;;;6.68;1.70;;;;;;;12.04;88.20;101075.78;6225284;28;20054;-77
2021/05/27 11:16:04;;;;;;;12.43;1.50;;;;;;;12.05;89.80;101071.34;6224919;28;20132;-79
2021/05/27 11:19:41;;;;;;;6.95;1.70;;;;;;;12.16;89.21;101075.09;6225421;28;20068;-78
2021/05/27 11:22:53;;;;;;;4.80;1.58;;;;;;;12.52;87.03;101078.41;6210885;28;20129;-78
2021/05/27 11:26:18;;;;;;;3.72;1.20;;;;;;;12.75;81.91;101069.19;6200307;28;20057;-77
2021/05/27 11:29:19;;;;;;;9.10;1.38;;;;;;;12.95;83.29;101066.28;6200218;28;20053;-78
2021/05/27 11:32:34;;;;;;;5.75;1.70;;;;;;;12.92;84.20;101069.09;6199975;28;20047;-78
2021/05/27 11:35:42;;;;;;;8.90;1.88;;;;;;;12.64;82.26;101083.84;6200200;28;20046;-80
2021/05/27 11:38:43;;;;;;;2.58;1.35;;;;;;;12.64;79.70;101077.72;6199365;28;20050;-77
2021/05/27 11:41:45;;;;;;;8.30;1.55;;;;;;;12.53;81.35;101088.03;6199610;28;20425;-77
2021/05/27 11:44:55;;;;;;;10.30;1.63;;;;;;;12.35;83.56;101074.94;6207854;28;20533;-77
2021/05/27 11:48:08;;;;;;;9.35;1.52;;;;;;;12.63;80.66;101084.78;6199877;28;20054;-79
2021/05/27 11:51:12;;;;;;;4.82;1.13;;;;;;;12.63;79.79;101078.69;6198752;28;20047;-78
2021/05/27 11:54:14;;;;;;;8.57;1.60;;;;;;;12.58;79.94;101083.34;6199518;28;20092;-77
2021/05/27 11:57:17;;;;;;;8.20;1.60;;;;;;;12.62;83.92;101076.94;6199256;28;20127;-77
2021/05/27 12:00:20;;;;;;;4.97;1.38;;;;;;;12.95;78.74;101071.56;6218459;28;20501;-77
2021/05/27 12:03:21;;;;;;;4.00;1.17;;;;;;;12.78;78.53;101076.94;6223638;28;20111;-78
2021/05/27 12:06:22;;;;;;;7.13;1.40;;;;;;;12.66;78.37;101075.84;6223127;28;20046;-76
2021/05/27 12:09:26;;;;;;;3.63;1.08;;;;;;;13.08;76.07;101079.59;6215030;28;20050;-75
2021/05/27 12:12:29;;;;;;;5.50;1.17;;;;;;;13.09;76.82;101087.44;6222922;28;20057;-77
2021/05/27 12:15:31;;;;;;;8.90;1.40;;;;;;;12.95;74.50;101084.75;6215094;28;20050;-78
2021/05/27 12:18:32;;;;;;;5.80;1.10;;;;;;;12.86;75.28;101094.03;6223046;28;20046;-78
2021/05/27 12:21:34;;;;;;;7.25;1.38;;;;;;;12.58;79.30;101101.78;6223194;28;20050;-77
2021/05/27 12:24:36;;;;;;;4.43;1.08;;;;;;;13.07;75.65;101093.72;6223394;28;20054;-78
2021/05/27 12:27:39;;;;;;;6.45;1.70;;;;;;;12.99;77.21;101099.47;6223391;28;20050;-78
2021/05/27 12:30:43;;;;;;;5.72;1.17;;;;;;;12.89;78.79;101104.38;6223735;28;20061;-78
2021/05/27 12:33:44;;;;;;;4.18;1.65;;;;;;;13.09;76.81;101112.97;6214750;28;20052;-79
2021/05/27 12:36:59;;;;;;;3.03;1.10;;;;;;;13.10;76.92;101112.88;6223098;28;20457;-79
2021/05/27 12:40:04;;;;;;;5.53;1.33;;;;;;;13.12;76.55;101104.84;6221304;28;20061;-78
2021/05/27 12:43:20;;;;;;;4.47;1.05;;;;;;;13.16;77.06;101120.41;6221501;28;20050;-78
2021/05/27 12:46:31;;;;;;;4.65;1.30;;;;;;;13.30;76.58;101118.81;6220399;28;20050;-78
2021/05/27 12:49:32;;;;;;;7.88;1.10;;;;;;;13.07;78.91;101118.31;6222777;28;20049;-78
2021/05/27 12:52:38;;;;;;;5.22;1.15;;;;;;;13.05;79.40;101129.91;6222859;28;20065;-78
2021/05/27 12:55:39;;;;;;;8.45;1.33;;;;;;;12.91;79.08;101130.69;6223043;28;20049;-78
2021/05/27 12:58:43;;;;;;;6.35;1.35;;;;;;;12.85;80.09;101129.28;6222765;28;20140;-78
2021/05/27 13:01:46;;;;;;;11.27;1.75;;;;;;;12.78;81.39;101132.34;6201202;28;20057;-74
2021/05/27 13:04:47;;;;;;;7.18;1.85;;;;;;;12.91;78.87;101135.97;6198645;28;20490;-76
2021/05/27 13:07:58;;;;;;;9.35;1.67;;;;;;;12.97;80.66;101140.91;6197888;28;20141;-76
2021/05/27 13:11:00;;;;;;;4.30;1.80;;;;;;;12.77;84.25;101144.66;6198218;28;20058;-79
2021/05/27 13:14:13;;;;;;;8.77;1.90;;;;;;;12.66;83.10;101149.69;6197433;28;20050;-77
2021/05/27 13:17:16;;;;;;;6.18;1.33;;;;;;;12.80;83.66;101173.50;6198173;28;20054;-76
2021/05/27 13:20:17;;;;;;;4.85;1.33;;;;;;;12.32;89.09;101182.31;6197618;28;20046;-78
2021/05/27 13:23:26;;;;;;;7.07;1.25;;;;;;;11.85;91.89;101188.28;6198133;28;20050;-76
2021/05/27 13:26:26;;;;;;;11.13;2.08;;;;;;;11.32;97.21;101189.19;6197687;28;20421;-76
2021/05/27 13:29:44;;;;;;;6.68;2.50;;;;;;;11.25;97.94;101193.88;6198889;28;20050;-76
2021/05/27 13:32:46;;;;;;;7.97;2.90;;;;;;;11.28;98.58;101192.91;6202372;28;20545;-76
2021/05/27 13:35:54;;;;;;;8.00;2.60;;;;;;;11.09;100.00;101201.69;6202928;28;20061;-76
2021/05/27 13:38:55;;;;;;;5.38;1.10;;;;;;;11.09;100.00;101206.94;6202154;28;20157;-76
2021/05/27 13:41:56;;;;;;;5.32;1.05;;;;;;;11.15;100.00;101209.28;6202347;28;20050;-76
2021/05/27 13:44:58;;;;;;;6.07;1.63;;;;;;;11.18;100.00;101221.44;6202502;28;20493;-76
2021/05/27 13:47:59;;;;;;;4.00;1.50;;;;;;;11.27;100.00;101222.78;6202576;28;20050;-77
2021/05/27 13:50:59;;;;;;;3.88;1.35;;;;;;;11.22;100.00;101225.63;6202027;28;20046;-77
2021/05/27 13:54:00;;;;;;;7.70;1.60;;;;;;;11.30;100.00;101227.88;6202324;28;20077;-77
2021/05/27 13:57:01;;;;;;;8.70;1.90;;;;;;;11.54;100.00;101231.09;6202271;28;20050;-76
2021/05/27 14:00:04;;;;;;;5.75;1.20;;;;;;;11.63;99.20;101230.63;6209066;28;20049;-77
2021/05/27 14:03:07;;;;;;;6.85;1.23;;;;;;;12.19;94.95;101235.66;6227088;28;20053;-77
2021/05/27 14:06:09;;;;;;;7.25;1.70;;;;;;;12.16;97.23;101227.91;6214940;28;20413;-79
2021/05/27 14:09:10;;;;;;;5.50;1.80;;;;;;;12.23;94.61;101231.09;6211924;28;20050;-76
2021/05/27 14:12:11;;;;;;;7.32;1.60;;;;;;;12.24;93.35;101235.41;6209076;28;20070;-77
2021/05/27 14:15:14;;;;;;;11.10;1.77;;;;;;;12.32;90.21;101227.13;6216320;28;20050;-77
2021/05/27 14:18:15;;;;;;;9.95;2.15;;;;;;;12.13;93.13;101230.72;6217777;28;20053;-77